»·PEaware :: UAL1399 KTUS-KPHX

UAL1399 :: KTUS-KPHX

FLIGHT INFORMATION

Flight Status: Arrived
Operator:
United Airlines
More flights by this operator :: More flights under this callsign
Pilot: David C. (16084)
Aircraft: SAAB 340
(SF34)
More flights by this aircraft type
Origin: KTUS Tucson Intl
United States
Destination: KPHX Phoenix Sky Harbor Intl
United States
More flights between these airports :: More routes between these airports
Route: TUS8 TUS V105 PXR
File this flight plan on PilotEdge
Remarks:
Altitude:
(Current/Filed)
14,000ft
Speed:
(Current/Filed)
284kts
Departed: 14-Sep-18 11:24 AM
Arrived: 14-Sep-18 12:01 PM
Distance/Time
Traveled:
96nm/0:36
Distance/Time
To Go:
Arrived

Flight Plot

Page will automatically refresh every two minutes.

Flight plan parsing failed; only flown route is shown


Map Options




Map Legend


Flown Route
Filed Route
Departure Airport
Arrival Airport
Navaid (VOR, NDB)
Fix

Horizontal Profiles

Position Reports

Time Latitude Longitude Heading Altitude Ground
Speed
14-Sep-18 11:02 32.121407 -110.940233 256 2648ft 0kts
14-Sep-18 11:03 32.121407 -110.940233 256 2648ft 0kts
14-Sep-18 11:04 32.121407 -110.940233 256 2648ft 0kts
14-Sep-18 11:05 32.121407 -110.940233 256 2648ft 0kts
14-Sep-18 11:06 32.121407 -110.940233 256 2648ft 0kts
14-Sep-18 11:07 32.121407 -110.940233 256 2648ft 0kts
14-Sep-18 11:08 32.121407 -110.940233 256 2648ft 0kts
14-Sep-18 11:09 32.121407 -110.940233 256 2648ft 0kts
14-Sep-18 11:10 32.121407 -110.940233 256 2648ft 0kts
14-Sep-18 11:11 32.121407 -110.940233 256 2648ft 0kts
14-Sep-18 11:12 32.121407 -110.940233 256 2648ft 0kts
14-Sep-18 11:13 32.121407 -110.940233 256 2648ft 0kts
14-Sep-18 11:14 32.121407 -110.940233 256 2648ft 0kts
14-Sep-18 11:15 32.121407 -110.940233 256 2648ft 0kts
14-Sep-18 11:16 32.121407 -110.940233 256 2648ft 0kts
14-Sep-18 11:17 32.121407 -110.940233 256 2648ft 0kts
14-Sep-18 11:18 32.121407 -110.940233 256 2648ft 0kts
14-Sep-18 11:19 32.121406 -110.940236 256 2648ft 0kts
14-Sep-18 11:20 32.120762 -110.942392 314 2648ft 14kts
14-Sep-18 11:21 32.123686 -110.945935 304 2648ft 14kts
14-Sep-18 11:22 32.123559 -110.946701 222 2648ft 0kts
14-Sep-18 11:23 32.123550 -110.946711 222 2648ft 1kts
14-Sep-18 11:24 32.122277 -110.946616 134 2648ft 0kts
14-Sep-18 11:25 32.121860 -110.946073 130 2648ft 0kts
14-Sep-18 11:26 32.110810 -110.932972 132 2750ft 152kts
14-Sep-18 11:27 32.068431 -110.908548 183 4787ft 188kts
14-Sep-18 11:28 32.035097 -110.950719 267 6559ft 197kts
14-Sep-18 11:29 32.066648 -110.997689 349 8129ft 201kts
14-Sep-18 11:30 32.114439 -110.980062 17 9454ft 204kts
14-Sep-18 11:31 32.161899 -111.008018 293 10754ft 210kts
14-Sep-18 11:32 32.186417 -111.070943 291 11996ft 212kts
14-Sep-18 11:33 32.210706 -111.134144 290 13267ft 205kts
14-Sep-18 11:34 32.235672 -111.196094 296 13970ft 228kts
14-Sep-18 11:35 32.269717 -111.264933 297 13953ft 252kts
14-Sep-18 11:36 32.305752 -111.337582 297 13941ft 259kts
14-Sep-18 11:37 32.342407 -111.411615 297 13935ft 261kts
14-Sep-18 11:38 32.379402 -111.485847 303 13925ft 263kts
14-Sep-18 11:39 32.437543 -111.539092 323 13934ft 265kts
14-Sep-18 11:40 32.497956 -111.588620 323 13934ft 264kts
14-Sep-18 11:41 32.558184 -111.638108 323 13944ft 264kts
14-Sep-18 11:42 32.618225 -111.687528 322 13938ft 264kts
14-Sep-18 11:43 32.678564 -111.737279 322 13936ft 264kts
14-Sep-18 11:44 32.738703 -111.786943 322 13936ft 264kts
14-Sep-18 11:45 32.798978 -111.836805 322 13936ft 264kts
14-Sep-18 11:46 32.859093 -111.886620 322 13672ft 266kts
14-Sep-18 11:47 32.925397 -111.913168 353 12063ft 252kts
14-Sep-18 11:48 32.995011 -111.920950 353 12027ft 254kts
14-Sep-18 11:49 33.066455 -111.928933 351 12019ft 260kts
14-Sep-18 11:50 33.138572 -111.937036 350 11621ft 272kts
14-Sep-18 11:51 33.212258 -111.945310 350 9739ft 261kts
14-Sep-18 11:52 33.280247 -111.960849 326 7814ft 251kts
14-Sep-18 11:53 33.315035 -112.030806 290 5926ft 250kts
14-Sep-18 11:54 33.338558 -112.105371 276 4978ft 213kts
14-Sep-18 11:55 33.340076 -112.166861 269 4997ft 181kts
14-Sep-18 11:56 33.342010 -112.226498 284 4991ft 179kts
14-Sep-18 11:57 33.381137 -112.256208 359 3727ft 177kts
14-Sep-18 11:58 33.424394 -112.247190 53 3003ft 158kts
14-Sep-18 11:59 33.429161 -112.190592 91 2985ft 162kts
14-Sep-18 12:00 33.428887 -112.136707 90 2908ft 153kts
14-Sep-18 12:01 33.428888 -112.091653 90 2217ft 141kts
14-Sep-18 12:02 33.428878 -112.045138 90 1473ft 133kts
14-Sep-18 12:03 33.428811 -112.013103 83 1139ft 27kts
14-Sep-18 12:04 33.429546 -112.010812 25 1139ft 0kts

Navigation Log

Ident Type
Flight plan parsing failed, navigation log unavailable